Lublin, Wisconsin
Current Conditions -  °F | °C
As of 12:15 PM on Thursday 18 Dec 2014 (Local Time) from KMDZ Reporting Station
Overcast Overcast  
Wind Chill: 22°   Ceiling: 1000
Heat Index: 22°   Visibility: 10mi
Dew Point: 18°   Wind: 0mph
Humidity: 84%   Direction: NA
Pressure: 30.23"   Gusts: NA
Location:  45.08°N, 90.72°W
Report Text: KMDZ 181815Z AUTO 00000KT 10SM OVC010 M06/M08 A3023 RMK AO2 T10571080
Loading
Personal Weather Stations






























Interactive Weather Map New forecast layout! Learn more

10-Day Weather Forecast

Advertisements
Track Severe Weather on mobile